Flight Track Log - Related Links

Times and Time Zones

All times are in EDT time to prevent confusion due to time zone crossing. See the N2173F flight status page for this flight to view local times or setup timezone preferences in your user account.


Time Position Orientation Groundspeed Altitude Reporting Facility
EDT Latitude Longitude Course Direction KTS MPH feet Rate Location/Type
Thu 08:47:00 AM 30.2566 -84.1504 125° Southeast  Level Estimated
Thu 08:48:00 AM 30.2363 -84.1145 123° Southeast  Level FlightAware Approximate
Thu 08:49:00 AM 30.2159 -84.0786 123° Southeast  Level FlightAware Approximate
Thu 08:50:00 AM 30.1955 -84.0427 123° Southeast  Level FlightAware Approximate
Thu 08:51:00 AM 30.1751 -84.0068 123° Southeast  Level FlightAware Approximate
Thu 08:52:00 AM 30.1547 -83.9710 123° Southeast  Level FlightAware Approximate
Thu 08:53:00 AM 30.1343 -83.9351 123° Southeast  Level FlightAware Approximate
Thu 08:54:00 AM 30.1139 -83.8993 123° Southeast  Level FlightAware Approximate
Thu 08:55:00 AM 30.0935 -83.8635 123° Southeast  Level FlightAware Approximate
Thu 08:56:00 AM 30.0730 -83.8277 123° Southeast  Level FlightAware Approximate
Thu 08:57:00 AM 30.0526 -83.7919 123° Southeast  Level FlightAware Approximate
Thu 08:58:00 AM 30.0322 -83.7561 123° Southeast  Level FlightAware Approximate
Thu 08:58:03 AM 30.2186 -83.9047 125° Southeast 142 163 5,000  Level Jacksonville Center
Thu 08:59:00 AM 30.0117 -83.7204 123° Southeast  Level FlightAware Approximate
Thu 08:59:03 AM 30.1939 -83.8706 130° Southeast 142 163 5,000  Level Jacksonville Center
Thu 09:00:00 AM 29.9877 -83.6877 126° Southeast  Level Estimated
Thu 09:00:03 AM 30.1650 -83.8319 131° Southeast 142 163 5,000  Level Jacksonville Center
Thu 09:01:00 AM 29.9663 -83.6527 125° Southeast  Level FlightAware Approximate
Thu 09:01:03 AM 30.1422 -83.8031 132° Southeast 142 163 5,000  Level Jacksonville Center
Thu 09:02:00 AM 29.9448 -83.6178 125° Southeast  Level FlightAware Approximate
Thu 09:02:03 AM 30.1172 -83.7692 130° Southeast 142 163 5,000  Level Jacksonville Center
Thu 09:03:00 AM 29.9233 -83.5829 125° Southeast  Level FlightAware Approximate
Thu 09:03:03 AM 30.0947 -83.7306 124° Southeast 136 157 5,000  Level Jacksonville Center
Thu 09:04:03 AM 30.0697 -83.6967 130° Southeast 136 157 5,000  Level Jacksonville Center
Thu 09:05:03 AM 30.0450 -83.6628 130° Southeast 136 157 5,000  Level Jacksonville Center
Thu 09:06:03 AM 30.0200 -83.6292 131° Southeast 136 157 5,000  Level Jacksonville Center
Thu 09:07:03 AM 29.9953 -83.5953 130° Southeast 136 157 5,000  Level Jacksonville Center
Thu 09:08:03 AM 29.9703 -83.5614 130° Southeast 136 157 5,000  Level Jacksonville Center
Thu 09:09:03 AM 29.9456 -83.5278 130° Southeast 136 157 5,000  Level Jacksonville Center
Thu 09:10:03 AM 29.9206 -83.4942 131° Southeast 136 157 5,000  Level Jacksonville Center
Thu 09:11:03 AM 29.8978 -83.4603 128° Southeast 136 157 5,000  Level Jacksonville Center
Thu 09:12:03 AM 29.8728 -83.4267 131° Southeast 136 157 5,000  Level Jacksonville Center
Thu 09:13:03 AM 29.8500 -83.3956 130° Southeast 136 157 5,000  Level Jacksonville Center
Thu 09:14:03 AM 29.8250 -83.3594 129° Southeast 136 157 5,000  Level Jacksonville Center
Thu 09:15:03 AM 29.8003 -83.3283 132° Southeast 136 157 5,000  Level Jacksonville Center
Thu 09:16:03 AM 29.7753 -83.2922 129° Southeast 136 157 5,000  Level Jacksonville Center
Thu 09:17:03 AM 29.7525 -83.2586 128° Southeast 136 157 5,000  Level Jacksonville Center
Thu 09:18:03 AM 29.7275 -83.2275 133° Southeast 136 157 5,000  Level Jacksonville Center
Thu 09:19:03 AM 29.7025 -83.1939 131° Southeast 131 151 5,000  Level Jacksonville Center
Thu 09:20:03 AM 29.6794 -83.1628 130° Southeast 138 159 5,000  Level Jacksonville Center
Thu 09:21:03 AM 29.6567 -83.1292 128° Southeast 127 146 5,000  Level Jacksonville Center
Thu 09:22:03 AM 29.6317 -83.0981 133° Southeast 136 157 5,000  Level Jacksonville Center
Thu 09:23:03 AM 29.6067 -83.0644 131° Southeast 126 145 5,000  Level Jacksonville Center
Thu 09:24:03 AM 29.5881 -83.0286 121° Southeast 139 160 5,000  Level Jacksonville Center
Thu 09:25:03 AM 29.5733 -82.9906 114° Southeast 126 145 5,000  Level Jacksonville Center
Thu 09:26:08 AM 29.5544 -82.9475 117° Southeast 135 155 5,000  Level Jacksonville Center
Thu 09:27:15 AM 29.5358 -82.9069 118° Southeast 137 158 5,000  Level Jacksonville Center
Thu 09:28:03 AM 29.5233 -82.8736 113° Southeast 136 157 5,000  Level Jacksonville Center
Thu 09:29:03 AM 29.5025 -82.8400 125° Southeast 136 157 5,000  Level Jacksonville Center
Thu 09:30:03 AM 29.4772 -82.8092 133° Southeast 136 157 5,000  Level Jacksonville Center
Thu 09:31:03 AM 29.4522 -82.7758 131° Southeast 136 157 5,000  Level Jacksonville Center
Thu 09:32:03 AM 29.4272 -82.7494 137° Southeast 136 157 5,000  Level Jacksonville Center
Thu 09:33:03 AM 29.3978 -82.7258 145° Southeast 130 150 5,000  Level Jacksonville Center
Thu 09:34:04 AM 29.3686 -82.6947 137° Southeast 134 154 5,000  Level Jacksonville Center
Thu 09:35:16 AM 29.3353 -82.6567 135° Southeast 133 153 5,000  Level Jacksonville Center
Thu 09:36:18 AM 29.3100 -82.6283 136° Southeast 133 153 5,000  Level Jacksonville Center
Thu 09:37:19 AM 29.2850 -82.5950 131° Southeast 133 153 5,000  Level Jacksonville Center
Thu 09:38:20 AM 29.2556 -82.5642 138° Southeast 132 152 5,000  Level Jacksonville Center
Thu 09:39:21 AM 29.2325 -82.5333 131° Southeast 133 153 5,000  Level Jacksonville Center
Thu 09:40:34 AM 29.2053 -82.4928 128° Southeast 130 150 5,000  Level Jacksonville Center
Thu 09:41:29 AM 29.1844 -82.4597 126° Southeast 134 154 5,000  Level Jacksonville Center
Thu 09:42:30 AM 29.1656 -82.4264 123° Southeast 133 153 5,000  Level Jacksonville Center
Thu 09:43:37 AM 29.1361 -82.3886 132° Southeast 131 151 5,000  Level Jacksonville Center
Thu 09:44:26 AM 29.1172 -82.3672 135° Southeast 131 151 5,000  Level Jacksonville Center
Thu 09:45:33 AM 29.0878 -82.3319 134° Southeast 133 153 5,000  Level Jacksonville Center
Thu 09:46:28 AM 29.0628 -82.3033 135° Southeast 134 154 5,000  Level Jacksonville Center
Thu 09:47:35 AM 29.0353 -82.2728 136° Southeast 136 157 5,000  Level Jacksonville Center
Thu 09:48:36 AM 29.0081 -82.2444 138° Southeast 135 155 5,000  Level Jacksonville Center
Thu 09:49:37 AM 28.9786 -82.2114 136° Southeast 136 157 5,000  Level Jacksonville Center
Thu 09:50:38 AM 28.9514 -82.1831 138° Southeast 135 155 5,000  Level Jacksonville Center
Thu 09:51:45 AM 28.9219 -82.1478 134° Southeast 138 159 5,000  Level Jacksonville Center
Thu 09:53:17 AM 28.8833 -82.1000 133° Southeast 139 160 5,000  Level Orlando TRACON
Thu 09:54:17 AM 28.8500 -82.0667 139° Southeast 139 160 5,000  Level Orlando TRACON
Thu 09:55:11 AM 28.8333 -82.0333 120° Southeast 134 154 5,000  Level Orlando TRACON
Thu 09:56:11 AM 28.8000 -82.0000 139° Southeast 139 160 5,000  Level Orlando TRACON
Thu 09:57:11 AM 28.7833 -81.9833 139° Southeast 134 154 5,000  Level Orlando TRACON
Thu 09:58:11 AM 28.7500 -81.9500 139° Southeast 137 158 5,000  Level Orlando TRACON
Thu 09:59:06 AM 28.7167 -81.9167 139° Southeast 139 160 5,000  Level Orlando TRACON
Thu 10:00:06 AM 28.7000 -81.8833 120° Southeast 135 155 5,000  Level Orlando TRACON
Thu 10:01:06 AM 28.6667 -81.8500 139° Southeast 135 155 5,000 -99 Level Orlando TRACON
Thu 10:02:07 AM 28.6500 -81.8333 139° Southeast 139 160 4,800 -248 Descending Orlando TRACON
Thu 10:03:07 AM 28.6167 -81.8000 139° Southeast 150 173 4,500 -286 Descending Orlando TRACON
Thu 10:04:13 AM 28.5833 -81.7500 127° Southeast 146 168 4,200 -286 Descending Orlando TRACON
Thu 10:05:13 AM 28.5500 -81.7167 139° Southeast 146 168 3,900 -316 Descending Orlando TRACON
Thu 10:06:07 AM 28.5333 -81.7000 139° Southeast 145 167 3,600 -300 Descending Orlando TRACON
Thu 10:07:13 AM 28.5000 -81.6500 127° Southeast 146 168 3,300 -286 Descending Orlando TRACON
Thu 10:08:13 AM 28.4667 -81.6167 139° Southeast 148 170 3,000 -298 Descending Orlando TRACON
Thu 10:09:14 AM 28.4500 -81.5833 120° Southeast 142 163 2,700 -313 Descending Orlando TRACON
Thu 10:10:08 AM 28.4167 -81.5667 156° South 143 165 2,400 -350 Descending Orlando TRACON
Thu 10:11:14 AM 28.3833 -81.5333 139° Southeast 139 160 2,000 -190 Descending Orlando TRACON
Thu 10:12:14 AM 28.3667 -81.5000 120° Southeast 124 143 2,000 -300 Level Orlando TRACON
Thu 10:13:14 AM 28.3333 -81.4667 139° Southeast 119 137 1,400 -626 Descending Orlando TRACON
Thu 10:14:09 AM 28.3167 -81.4667 180° South 81 93 800 -655 Descending Orlando TRACON
Thu 10:16:00 AM 28.2833 -81.4333 139° Southeast  Level FlightAware Approximate
Thu 10:23:00 AM 28.2898 -81.4371 139° Southeast  Level Estimated
Thu 10:24:00 AM 28.2898 -81.4371 139° Southeast  Level Estimated
Thu 10:25:00 AM 28.2898 -81.4371 139° Southeast  Level Estimated
Thu 10:26:00 AM 28.2898 -81.4371 139° Southeast  Level Estimated

Login

Don't have an account? Register now (free) for customized features, flight alerts, and more!